Time;durP1;ratioP1;P1;durP2;ratioP2;P2;SDS_P1;SDS_P2;PMS_P1;PMS_P2;Temp;Humidity;BMP_temperature;BMP_pressure;BME280_temperature;BME280_humidity;BME280_pressure;Samples;Min_cycle;Max_cycle;Signal;HPM_P1;HPM_P2
2021/12/31 00:00:21;;;;;;;6.27;2.97;;;14.40;99.90;;;;;;5015063;28;20424;-84
2021/12/31 00:02:46;;;;;;;5.03;2.67;;;14.50;99.90;;;;;;5016239;28;20611;-83
2021/12/31 00:05:12;;;;;;;4.40;2.17;;;14.50;99.90;;;;;;5014788;28;20345;-84
2021/12/31 00:07:38;;;;;;;8.30;3.03;;;14.50;99.90;;;;;;5014517;28;20177;-84
2021/12/31 00:10:04;;;;;;;3.90;1.87;;;14.50;99.90;;;;;;5014646;28;20185;-84
2021/12/31 00:12:32;;;;;;;4.90;2.53;;;14.60;99.90;;;;;;5016094;28;20220;-84
2021/12/31 00:14:58;;;;;;;3.50;2.30;;;14.60;99.90;;;;;;5014713;28;20423;-84
2021/12/31 00:17:24;;;;;;;4.10;2.20;;;14.60;99.90;;;;;;5014296;28;20416;-84
2021/12/31 00:19:58;;;;;;;3.90;2.33;;;14.60;99.90;;;;;;5014396;28;20519;-84
2021/12/31 00:22:53;;;;;;;3.83;1.70;;;14.50;99.90;;;;;;5014237;28;20215;-84
2021/12/31 00:25:16;;;;;;;3.33;1.80;;;14.60;99.90;;;;;;5015056;28;20471;-84
2021/12/31 00:27:41;;;;;;;7.33;2.00;;;14.60;99.90;;;;;;5013822;28;20443;-84
2021/12/31 00:30:09;;;;;;;3.40;1.90;;;14.70;99.90;;;;;;5014994;28;20416;-84
2021/12/31 00:32:35;;;;;;;5.57;2.27;;;14.70;99.90;;;;;;5014959;28;20283;-84
2021/12/31 00:35:01;;;;;;;3.50;1.60;;;14.70;99.90;;;;;;5013789;28;20458;-84
2021/12/31 00:37:31;;;;;;;3.30;1.97;;;14.70;99.90;;;;;;5013552;28;20722;-83
2021/12/31 00:39:57;;;;;;;2.80;1.70;;;14.80;99.90;;;;;;5030110;28;20648;-84
2021/12/31 00:42:23;;;;;;;4.23;2.00;;;14.70;99.90;;;;;;5014803;28;20454;-84
2021/12/31 00:44:49;;;;;;;3.93;1.70;;;14.70;99.90;;;;;;5013515;28;20431;-84
2021/12/31 00:47:15;;;;;;;6.40;2.23;;;14.80;99.90;;;;;;5013115;28;20506;-84
2021/12/31 00:49:41;;;;;;;4.63;2.03;;;14.80;99.90;;;;;;5013452;28;20447;-84
2021/12/31 00:52:07;;;;;;;5.97;1.70;;;14.80;99.90;;;;;;5013095;28;20206;-84
2021/12/31 00:54:34;;;;;;;4.70;1.70;;;14.90;99.90;;;;;;5014708;28;20173;-84
2021/12/31 00:57:03;;;;;;;4.20;2.00;;;14.80;99.90;;;;;;5013067;28;20494;-84
2021/12/31 00:59:32;;;;;;;3.90;2.13;;;14.80;99.90;;;;;;5014644;28;20419;-84
2021/12/31 01:01:59;;;;;;;3.87;2.30;;;14.80;99.90;;;;;;5013118;28;20474;-84
2021/12/31 01:04:25;;;;;;;4.37;2.30;;;14.80;99.90;;;;;;5013333;28;20416;-84
2021/12/31 01:06:50;;;;;;;3.73;1.57;;;14.90;99.90;;;;;;5014272;28;20990;-84
2021/12/31 01:09:16;;;;;;;4.40;1.77;;;14.90;99.90;;;;;;5014375;28;20495;-84
2021/12/31 01:11:46;;;;;;;3.63;1.90;;;14.90;99.90;;;;;;5012975;28;20188;-83
2021/12/31 01:14:26;;;;;;;5.50;2.10;;;14.90;99.90;;;;;;5012929;28;20648;-84
2021/12/31 01:16:57;;;;;;;3.93;1.80;;;14.90;99.90;;;;;;5012903;28;20462;-84
2021/12/31 01:21:50;;;;;;;6.03;2.20;;;14.90;99.90;;;;;;5014254;28;20428;-84
2021/12/31 01:24:17;;;;;;;3.03;2.10;;;14.90;99.90;;;;;;5040223;23;20501;-84
2021/12/31 01:26:43;;;;;;;3.27;1.50;;;15.00;99.90;;;;;;5029733;28;20205;-83
2021/12/31 01:29:08;;;;;;;3.37;1.57;;;14.90;99.90;;;;;;5013272;28;20796;-85
2021/12/31 01:31:34;;;;;;;3.83;1.40;;;15.00;99.90;;;;;;5015059;28;20320;-83
2021/12/31 01:34:01;;;;;;;3.57;2.57;;;15.00;99.90;;;;;;4999970;28;20204;-83
2021/12/31 01:36:27;;;;;;;4.10;1.70;;;15.00;99.90;;;;;;4993486;28;20235;-84
2021/12/31 01:38:53;;;;;;;4.30;1.73;;;15.00;99.90;;;;;;4993877;28;20417;-84
2021/12/31 01:41:20;;;;;;;4.90;2.03;;;15.10;99.90;;;;;;4993605;28;20689;-83
2021/12/31 01:43:46;;;;;;;3.07;1.87;;;15.10;99.90;;;;;;4993751;28;20864;-83
2021/12/31 01:46:12;;;;;;;4.97;2.60;;;15.10;99.90;;;;;;4994849;28;20831;-84
2021/12/31 01:51:24;;;;;;;7.47;2.43;;;15.10;99.90;;;;;;4994772;28;20420;-83
2021/12/31 01:53:49;;;;;;;2.90;1.60;;;15.00;99.90;;;;;;4993445;28;20940;-83
2021/12/31 01:56:18;;;;;;;4.57;2.13;;;15.00;99.90;;;;;;4982192;28;20504;-83
2021/12/31 01:58:44;;;;;;;5.73;2.00;;;14.90;99.90;;;;;;4992703;28;20284;-83
2021/12/31 02:01:11;;;;;;;7.20;2.40;;;14.90;99.90;;;;;;4993794;28;20436;-83
2021/12/31 02:03:38;;;;;;;7.43;2.23;;;14.90;99.90;;;;;;4979589;28;20456;-83
2021/12/31 02:06:04;;;;;;;7.87;2.07;;;14.90;99.90;;;;;;4973639;28;20508;-83
2021/12/31 02:08:31;;;;;;;2.97;1.87;;;14.90;99.90;;;;;;4972875;28;20421;-83
2021/12/31 02:10:56;;;;;;;5.07;2.07;;;14.90;99.90;;;;;;4973142;28;20853;-84
2021/12/31 02:13:24;;;;;;;3.80;1.87;;;14.90;99.90;;;;;;4974507;28;20437;-83
2021/12/31 02:15:51;;;;;;;4.93;1.93;;;14.80;99.90;;;;;;4973213;28;20183;-83
2021/12/31 02:18:17;;;;;;;4.07;2.10;;;14.80;99.90;;;;;;4972864;28;20486;-83
2021/12/31 02:20:46;;;;;;;6.37;1.60;;;14.80;99.90;;;;;;4974344;28;20421;-83
2021/12/31 02:23:23;;;;;;;4.50;1.47;;;14.80;99.90;;;;;;4972741;28;20222;-84
2021/12/31 02:25:50;;;;;;;5.00;2.47;;;14.80;99.90;;;;;;4972883;28;20469;-83
2021/12/31 02:28:16;;;;;;;4.17;1.83;;;14.70;99.90;;;;;;4972579;28;20432;-83
2021/12/31 02:30:42;;;;;;;3.47;1.80;;;14.70;99.90;;;;;;4974660;28;20544;-83
2021/12/31 02:33:08;;;;;;;2.90;1.70;;;14.70;99.90;;;;;;4991092;28;20440;-83
2021/12/31 02:35:34;;;;;;;7.07;2.03;;;14.60;99.90;;;;;;4988448;28;20507;-82
2021/12/31 02:38:01;;;;;;;3.43;1.67;;;14.60;99.90;;;;;;4991871;28;20178;-83
2021/12/31 02:40:28;;;;;;;3.53;1.73;;;14.70;99.90;;;;;;4992271;28;20848;-84
2021/12/31 02:42:55;;;;;;;4.50;1.67;;;14.60;99.90;;;;;;4991946;28;20440;-83
2021/12/31 02:45:28;;;;;;;2.97;1.53;;;14.60;99.90;;;;;;4993105;28;20488;-83
2021/12/31 02:47:55;;;;;;;5.70;1.50;;;14.60;99.90;;;;;;4993066;28;20420;-82
2021/12/31 02:50:30;;;;;;;3.93;1.50;;;14.60;99.90;;;;;;4992138;28;20906;-83
2021/12/31 02:52:56;;;;;;;4.07;1.90;;;14.60;99.90;;;;;;4991825;28;20432;-82
2021/12/31 02:55:22;;;;;;;4.23;1.73;;;14.70;99.90;;;;;;4991817;28;20985;-82
2021/12/31 02:57:48;;;;;;;4.97;1.73;;;14.70;99.90;;;;;;4991457;28;20421;-83
2021/12/31 03:00:15;;;;;;;3.27;1.90;;;14.70;99.90;;;;;;4991856;28;20421;-82
2021/12/31 03:02:42;;;;;;;4.30;2.00;;;14.60;99.90;;;;;;4991205;28;20449;-82
2021/12/31 03:05:09;;;;;;;4.03;1.97;;;14.60;99.90;;;;;;4991642;28;20468;-84
2021/12/31 03:07:36;;;;;;;3.83;1.40;;;14.60;99.90;;;;;;4991322;28;20409;-83
2021/12/31 03:10:03;;;;;;;3.73;1.60;;;14.60;99.90;;;;;;4991819;28;20523;-82
2021/12/31 03:12:29;;;;;;;4.23;1.57;;;14.60;99.90;;;;;;4991360;28;20421;-83
2021/12/31 03:14:56;;;;;;;3.50;1.53;;;14.70;99.90;;;;;;4993026;28;20477;-83
2021/12/31 03:17:24;;;;;;;2.63;1.50;;;14.60;99.90;;;;;;4991061;28;20421;-83
2021/12/31 03:19:57;;;;;;;3.87;1.70;;;14.60;99.90;;;;;;4991847;28;20511;-83
2021/12/31 03:22:25;;;;;;;3.83;1.70;;;14.50;99.90;;;;;;4991319;28;20520;-82
2021/12/31 03:24:50;;;;;;;3.90;1.70;;;14.50;99.90;;;;;;4992961;28;20433;-83
2021/12/31 03:27:16;;;;;;;3.70;1.50;;;14.40;99.90;;;;;;4991140;28;20499;-83
2021/12/31 03:29:41;;;;;;;3.77;1.60;;;14.40;99.90;;;;;;4991564;28;20174;-83
2021/12/31 03:32:07;;;;;;;3.40;2.13;;;14.40;99.90;;;;;;4991657;28;20644;-84
2021/12/31 03:34:33;;;;;;;4.17;1.80;;;14.50;99.90;;;;;;4992705;28;20574;-83
2021/12/31 03:36:58;;;;;;;3.17;1.40;;;14.40;99.90;;;;;;4991825;28;20560;-83
2021/12/31 03:39:24;;;;;;;2.70;1.63;;;14.50;99.90;;;;;;4995062;28;20213;-84
2021/12/31 03:41:49;;;;;;;2.90;1.57;;;14.50;99.90;;;;;;4992159;28;20178;-83
2021/12/31 03:44:15;;;;;;;5.23;1.53;;;14.50;99.90;;;;;;4993615;28;20233;-83
2021/12/31 03:46:40;;;;;;;2.60;1.40;;;14.50;99.90;;;;;;5001421;28;20578;-86
2021/12/31 03:49:06;;;;;;;3.17;1.70;;;14.50;99.90;;;;;;5001862;28;20583;-86
2021/12/31 03:51:32;;;;;;;3.43;1.50;;;14.50;99.90;;;;;;5002025;28;20178;-84
2021/12/31 03:53:57;;;;;;;3.40;1.97;;;14.50;99.90;;;;;;5003316;28;20190;-84
2021/12/31 03:56:25;;;;;;;3.37;1.60;;;14.50;99.90;;;;;;5000817;28;20265;-86
2021/12/31 03:58:51;;;;;;;3.47;1.83;;;14.50;99.90;;;;;;5001137;28;20182;-85
2021/12/31 04:01:16;;;;;;;4.40;2.10;;;14.40;99.90;;;;;;5000528;28;20428;-85
2021/12/31 04:03:42;;;;;;;3.30;1.50;;;14.40;99.90;;;;;;5000293;28;20276;-86
2021/12/31 04:06:07;;;;;;;3.33;1.70;;;14.50;99.90;;;;;;5000039;28;20303;-82
2021/12/31 04:08:33;;;;;;;4.70;1.90;;;14.40;99.90;;;;;;5000482;28;20233;-85
2021/12/31 04:10:59;;;;;;;3.23;1.63;;;14.40;99.90;;;;;;5000860;28;20188;-86
2021/12/31 04:13:24;;;;;;;6.90;1.87;;;14.40;99.90;;;;;;5000539;28;20210;-83
2021/12/31 04:15:50;;;;;;;3.07;1.70;;;14.40;99.90;;;;;;4999666;28;20269;-83
2021/12/31 04:18:15;;;;;;;4.43;2.10;;;14.40;99.90;;;;;;4999662;28;20562;-85
2021/12/31 04:20:44;;;;;;;3.03;1.60;;;14.40;99.90;;;;;;5002192;28;20190;-84
2021/12/31 04:23:15;;;;;;;5.50;1.77;;;14.30;99.90;;;;;;5003475;28;20590;-85
2021/12/31 04:25:41;;;;;;;3.43;2.23;;;14.30;99.90;;;;;;5003335;28;20464;-84
2021/12/31 04:28:07;;;;;;;3.10;2.33;;;14.20;99.90;;;;;;5002430;28;20487;-85
2021/12/31 04:30:33;;;;;;;3.90;1.80;;;14.20;99.90;;;;;;5002495;28;20417;-83
2021/12/31 04:33:00;;;;;;;3.60;1.70;;;14.20;99.90;;;;;;5002519;28;20681;-84
2021/12/31 04:35:26;;;;;;;3.47;1.90;;;14.20;99.90;;;;;;5001539;28;20429;-86
2021/12/31 04:37:51;;;;;;;3.37;1.77;;;14.20;99.90;;;;;;5003028;28;20912;-84
2021/12/31 04:40:17;;;;;;;2.80;1.70;;;14.20;99.90;;;;;;5003172;28;20195;-85
2021/12/31 04:42:44;;;;;;;3.30;1.70;;;14.20;99.90;;;;;;5001362;28;20217;-84
2021/12/31 04:45:11;;;;;;;3.13;1.77;;;14.20;99.90;;;;;;5001242;28;20241;-83
2021/12/31 04:47:37;;;;;;;3.40;2.03;;;14.20;99.90;;;;;;5001308;28;20487;-85
2021/12/31 04:50:04;;;;;;;3.20;2.10;;;14.20;99.90;;;;;;4995219;28;20500;-82
2021/12/31 04:52:29;;;;;;;3.57;2.33;;;14.20;99.90;;;;;;4995341;28;20448;-82
2021/12/31 04:54:55;;;;;;;5.17;1.90;;;14.10;99.90;;;;;;4995265;28;20452;-82
2021/12/31 04:57:24;;;;;;;4.60;2.00;;;14.10;99.90;;;;;;4993747;28;20220;-83
2021/12/31 04:59:49;;;;;;;3.87;2.00;;;14.10;99.90;;;;;;4993679;28;20272;-82
2021/12/31 05:02:15;;;;;;;2.47;1.40;;;14.10;99.90;;;;;;4993760;28;20870;-82
2021/12/31 05:04:41;;;;;;;2.63;1.57;;;14.00;99.90;;;;;;4993731;28;20224;-82
2021/12/31 05:07:06;;;;;;;3.23;1.70;;;14.00;99.90;;;;;;4993550;28;20193;-82
2021/12/31 05:09:32;;;;;;;4.00;1.90;;;14.00;99.90;;;;;;4993497;28;20193;-82
2021/12/31 05:11:57;;;;;;;3.60;1.67;;;14.00;99.90;;;;;;4994647;28;20204;-82
2021/12/31 05:14:23;;;;;;;4.23;1.90;;;14.00;99.90;;;;;;4994836;28;20653;-82
2021/12/31 05:16:49;;;;;;;4.37;2.07;;;14.00;99.90;;;;;;4993260;28;20196;-82
2021/12/31 05:19:14;;;;;;;3.90;2.10;;;14.00;99.90;;;;;;4994588;28;20193;-82
2021/12/31 05:21:40;;;;;;;7.27;1.90;;;14.00;99.90;;;;;;4993261;28;20192;-82
2021/12/31 05:24:05;;;;;;;3.80;2.23;;;14.00;99.90;;;;;;4993272;28;20217;-82
2021/12/31 05:26:31;;;;;;;3.73;2.20;;;14.00;99.90;;;;;;4993939;28;20210;-83
2021/12/31 05:28:57;;;;;;;3.90;2.20;;;14.00;99.90;;;;;;4993344;28;20185;-82
2021/12/31 05:31:22;;;;;;;3.70;1.97;;;14.00;99.90;;;;;;4992237;28;20229;-83
2021/12/31 05:33:48;;;;;;;4.30;1.93;;;14.00;99.90;;;;;;4993177;28;20573;-82
2021/12/31 05:36:13;;;;;;;3.97;2.10;;;14.00;99.90;;;;;;4993516;28;20188;-83
2021/12/31 05:38:39;;;;;;;4.43;2.23;;;14.00;99.90;;;;;;4994365;28;20588;-82
2021/12/31 05:41:05;;;;;;;7.17;2.00;;;14.00;99.90;;;;;;4996902;28;20706;-84
2021/12/31 05:43:31;;;;;;;5.50;1.90;;;14.00;99.90;;;;;;4998956;28;20437;-84
2021/12/31 05:45:57;;;;;;;4.03;2.40;;;14.00;99.90;;;;;;4998963;28;20464;-85
2021/12/31 05:48:24;;;;;;;4.57;2.40;;;14.00;99.90;;;;;;4996667;28;20427;-83
2021/12/31 05:50:50;;;;;;;3.83;2.00;;;14.00;99.90;;;;;;4996425;28;20186;-83
2021/12/31 05:53:16;;;;;;;3.33;1.90;;;14.00;99.90;;;;;;4996556;28;20439;-85
2021/12/31 05:55:41;;;;;;;3.70;2.20;;;14.00;99.90;;;;;;4995929;28;20516;-85
2021/12/31 05:58:07;;;;;;;3.07;1.93;;;14.10;99.90;;;;;;4998287;28;20637;-82
2021/12/31 06:00:32;;;;;;;4.17;2.00;;;14.10;99.90;;;;;;4998197;28;20182;-85
2021/12/31 06:02:58;;;;;;;3.40;2.23;;;14.00;99.90;;;;;;4996140;28;20235;-84
2021/12/31 06:05:26;;;;;;;3.27;2.17;;;14.00;99.90;;;;;;4997847;28;20391;-83
2021/12/31 06:07:57;;;;;;;3.67;2.40;;;14.00;99.90;;;;;;4997185;28;20421;-83
2021/12/31 06:10:24;;;;;;;5.00;2.70;;;14.00;99.90;;;;;;4996251;28;20428;-83
2021/12/31 06:12:52;;;;;;;3.50;2.33;;;14.00;99.90;;;;;;4996874;28;20467;-82
2021/12/31 06:15:19;;;;;;;6.40;2.60;;;13.90;99.90;;;;;;4994959;28;20433;-85
2021/12/31 06:17:45;;;;;;;4.90;2.20;;;13.90;99.90;;;;;;4994940;28;21010;-83
2021/12/31 06:20:11;;;;;;;4.63;1.90;;;13.90;99.90;;;;;;4995245;28;20495;-85
2021/12/31 06:22:36;;;;;;;4.67;2.43;;;13.90;99.90;;;;;;4994732;28;20236;-85
2021/12/31 06:25:03;;;;;;;3.40;2.37;;;13.80;99.90;;;;;;4995526;28;20201;-83
2021/12/31 06:27:29;;;;;;;3.87;2.30;;;13.80;99.90;;;;;;4994088;28;20268;-85
2021/12/31 06:29:54;;;;;;;3.93;2.23;;;13.80;99.90;;;;;;4996653;28;20460;-84
2021/12/31 06:32:20;;;;;;;3.60;2.20;;;13.80;99.90;;;;;;4994560;28;20247;-83
2021/12/31 06:34:45;;;;;;;4.50;2.40;;;13.70;99.90;;;;;;4994100;28;20182;-82
2021/12/31 06:37:11;;;;;;;3.70;2.23;;;13.60;99.90;;;;;;4994501;28;20263;-83
2021/12/31 06:39:37;;;;;;;4.70;2.63;;;13.50;99.90;;;;;;4994570;28;20189;-84
2021/12/31 06:42:04;;;;;;;6.93;2.50;;;13.40;99.90;;;;;;4994029;28;20182;-83
2021/12/31 06:44:32;;;;;;;5.00;2.40;;;13.40;99.90;;;;;;4993842;28;20461;-84
2021/12/31 06:46:58;;;;;;;4.10;2.10;;;13.30;99.90;;;;;;4995170;28;20963;-84
2021/12/31 06:49:23;;;;;;;4.33;2.40;;;13.20;99.90;;;;;;4994034;28;20432;-83
2021/12/31 06:51:49;;;;;;;3.63;2.23;;;13.20;99.90;;;;;;4993631;28;20186;-84
2021/12/31 06:54:14;;;;;;;5.93;2.30;;;13.10;99.90;;;;;;4995476;28;20268;-83
2021/12/31 06:56:40;;;;;;;6.30;2.57;;;13.00;99.90;;;;;;4993428;28;20193;-83
2021/12/31 06:59:06;;;;;;;6.47;2.90;;;12.90;99.90;;;;;;4995317;28;20606;-83
2021/12/31 07:01:31;;;;;;;4.33;1.90;;;12.90;99.90;;;;;;4992728;28;20193;-82
2021/12/31 07:03:57;;;;;;;4.50;2.97;;;12.80;99.90;;;;;;4994980;28;20204;-82
2021/12/31 07:06:23;;;;;;;3.73;2.40;;;12.80;99.90;;;;;;4992829;28;20220;-83
2021/12/31 07:08:49;;;;;;;8.60;2.43;;;12.80;99.90;;;;;;4993619;28;20178;-82
2021/12/31 07:11:17;;;;;;;3.97;2.60;;;12.70;99.90;;;;;;4992833;28;20940;-84
2021/12/31 07:13:43;;;;;;;4.50;3.00;;;12.60;99.90;;;;;;4992612;28;20574;-84
2021/12/31 07:16:08;;;;;;;4.77;2.60;;;12.60;99.90;;;;;;4992700;28;20429;-84
2021/12/31 07:18:34;;;;;;;4.10;2.50;;;12.50;99.90;;;;;;4992703;28;20437;-82
2021/12/31 07:21:00;;;;;;;3.67;2.40;;;12.50;99.90;;;;;;4992746;28;20189;-82
2021/12/31 07:23:25;;;;;;;3.83;2.33;;;12.50;99.90;;;;;;4993889;28;20464;-83
2021/12/31 07:25:51;;;;;;;4.53;2.37;;;12.50;99.90;;;;;;5011867;23;20230;-80
2021/12/31 07:28:17;;;;;;;4.07;2.23;;;12.40;99.90;;;;;;4974145;28;20269;-81
2021/12/31 07:30:44;;;;;;;6.13;2.37;;;12.40;99.90;;;;;;4958085;28;20178;-81
2021/12/31 07:33:17;;;;;;;4.87;2.97;;;12.40;99.90;;;;;;4973571;28;20202;-80
2021/12/31 07:35:44;;;;;;;11.70;2.93;;;12.30;99.90;;;;;;4957573;28;20421;-80
2021/12/31 07:38:20;;;;;;;4.00;2.47;;;12.40;99.90;;;;;;4957876;28;20955;-80
2021/12/31 07:40:47;;;;;;;3.70;2.33;;;12.40;99.90;;;;;;4958023;28;20940;-79
2021/12/31 07:43:14;;;;;;;4.13;2.53;;;12.40;99.90;;;;;;4957557;28;20485;-79
2021/12/31 07:45:41;;;;;;;3.50;2.70;;;12.40;99.90;;;;;;4957393;28;20999;-79
2021/12/31 07:48:07;;;;;;;7.50;3.20;;;12.50;99.90;;;;;;4957578;28;20460;-79
2021/12/31 07:50:34;;;;;;;3.73;2.67;;;12.50;99.90;;;;;;4956942;28;20441;-78
2021/12/31 07:52:59;;;;;;;4.20;2.20;;;12.50;99.90;;;;;;4956977;28;20530;-79
2021/12/31 07:55:25;;;;;;;3.20;2.17;;;12.50;99.90;;;;;;4958731;28;20877;-79
2021/12/31 07:57:51;;;;;;;4.50;2.10;;;12.50;99.90;;;;;;4960914;28;20188;-80
2021/12/31 08:00:17;;;;;;;3.83;2.40;;;12.50;99.90;;;;;;4960429;28;20429;-79
2021/12/31 08:02:43;;;;;;;5.03;2.50;;;12.50;99.90;;;;;;4960522;28;20438;-80
2021/12/31 08:05:09;;;;;;;6.80;3.03;;;12.50;99.90;;;;;;4960209;28;20808;-79
2021/12/31 08:07:35;;;;;;;3.90;2.50;;;12.50;99.90;;;;;;4960381;28;20613;-79
2021/12/31 08:10:03;;;;;;;3.73;2.77;;;12.60;99.90;;;;;;4959979;28;20438;-80
2021/12/31 08:12:29;;;;;;;3.43;2.27;;;12.60;99.90;;;;;;4959762;28;20438;-78
2021/12/31 08:14:55;;;;;;;4.10;2.90;;;12.60;99.90;;;;;;4960187;28;20999;-79
2021/12/31 08:17:21;;;;;;;4.80;2.43;;;12.60;99.90;;;;;;4959462;28;20413;-79
2021/12/31 08:19:47;;;;;;;5.60;2.53;;;12.70;99.90;;;;;;4959540;28;20495;-79
2021/12/31 08:22:13;;;;;;;6.57;2.73;;;12.80;99.90;;;;;;4959413;28;20210;-79
2021/12/31 08:24:39;;;;;;;10.13;3.20;;;12.80;99.90;;;;;;4959708;28;20608;-80
2021/12/31 08:27:04;;;;;;;4.13;2.67;;;12.80;99.90;;;;;;4959352;28;20268;-80
2021/12/31 08:29:30;;;;;;;4.90;2.63;;;12.90;99.90;;;;;;4959662;28;20261;-78
2021/12/31 08:31:56;;;;;;;6.57;2.20;;;12.80;99.90;;;;;;4959014;28;20441;-77
2021/12/31 08:34:22;;;;;;;3.57;2.20;;;12.90;99.90;;;;;;4958962;28;20240;-78
2021/12/31 08:36:48;;;;;;;3.70;2.93;;;12.90;99.90;;;;;;4959313;28;20278;-78
2021/12/31 08:39:13;;;;;;;3.20;2.10;;;13.00;99.90;;;;;;4958892;28;20183;-78
2021/12/31 08:41:40;;;;;;;4.67;2.70;;;13.00;99.90;;;;;;4958971;28;20213;-78
2021/12/31 08:44:07;;;;;;;3.90;2.13;;;13.00;99.90;;;;;;4959388;28;20657;-79
2021/12/31 08:46:35;;;;;;;2.87;1.73;;;13.10;99.90;;;;;;4957541;28;20469;-79
2021/12/31 08:49:01;;;;;;;5.03;2.90;;;13.10;99.90;;;;;;4981266;28;20561;-79
2021/12/31 08:51:27;;;;;;;3.47;1.77;;;13.10;99.90;;;;;;4956035;28;20450;-78
2021/12/31 08:53:56;;;;;;;6.10;2.20;;;13.20;99.90;;;;;;4940176;29;20419;-78
2021/12/31 08:56:22;;;;;;;3.80;1.80;;;13.20;99.90;;;;;;4939798;29;20222;-79
2021/12/31 08:58:48;;;;;;;3.93;2.23;;;13.10;99.90;;;;;;4950993;28;20421;-79
2021/12/31 09:01:13;;;;;;;4.70;2.10;;;13.20;99.90;;;;;;4963205;28;20996;-80
2021/12/31 09:03:39;;;;;;;3.30;1.90;;;13.20;99.90;;;;;;4961987;28;20422;-80
2021/12/31 09:06:06;;;;;;;3.53;2.03;;;13.20;99.90;;;;;;4965422;28;20266;-80
2021/12/31 09:08:33;;;;;;;5.53;2.20;;;13.20;99.90;;;;;;4960503;29;20442;-79
2021/12/31 09:10:59;;;;;;;5.10;2.30;;;13.20;99.90;;;;;;4957843;28;20414;-79
2021/12/31 09:13:27;;;;;;;3.23;2.20;;;13.20;99.90;;;;;;4964960;28;20411;-80
2021/12/31 09:15:53;;;;;;;3.53;2.23;;;13.20;99.90;;;;;;4965243;28;20576;-80
2021/12/31 09:18:22;;;;;;;4.83;2.00;;;13.30;99.90;;;;;;4967170;28;20421;-78
2021/12/31 09:20:49;;;;;;;3.63;2.00;;;13.30;99.90;;;;;;4971252;28;20458;-78
2021/12/31 09:23:15;;;;;;;3.67;1.90;;;13.30;99.90;;;;;;4958499;28;20445;-78
2021/12/31 09:25:41;;;;;;;4.10;2.20;;;13.30;99.90;;;;;;4959805;28;20491;-78
2021/12/31 09:28:07;;;;;;;4.20;2.20;;;13.40;99.90;;;;;;4959724;28;20473;-78
2021/12/31 09:30:33;;;;;;;2.87;1.83;;;13.40;99.90;;;;;;4961658;28;20937;-79
2021/12/31 09:32:59;;;;;;;3.43;2.00;;;13.40;99.90;;;;;;4962578;28;20471;-79
2021/12/31 09:35:25;;;;;;;3.33;1.90;;;13.50;99.90;;;;;;4960169;28;20194;-78
2021/12/31 09:37:51;;;;;;;3.10;1.80;;;13.50;99.90;;;;;;4963680;28;20426;-80
2021/12/31 09:40:20;;;;;;;3.73;1.83;;;13.60;99.90;;;;;;4964313;28;20449;-81
2021/12/31 09:43:12;;;;;;;3.70;2.13;;;13.60;99.90;;;;;;4963131;28;20688;-79
2021/12/31 09:45:40;;;;;;;4.97;1.97;;;13.70;99.90;;;;;;4961573;28;20462;-80
2021/12/31 09:48:11;;;;;;;4.00;1.83;;;13.80;99.90;;;;;;4956946;28;20426;-75
2021/12/31 09:50:40;;;;;;;4.77;2.20;;;13.80;99.90;;;;;;4956943;28;20541;-75
2021/12/31 09:53:07;;;;;;;4.37;2.07;;;13.90;99.90;;;;;;4953304;28;20817;-74
2021/12/31 09:55:40;;;;;;;2.83;2.07;;;14.00;99.90;;;;;;4953880;29;20426;-76
2021/12/31 09:58:07;;;;;;;3.67;2.20;;;14.00;99.90;;;;;;4953979;29;20427;-77
2021/12/31 10:00:34;;;;;;;3.80;2.60;;;14.10;99.90;;;;;;4955104;29;20415;-78
2021/12/31 10:03:22;;;;;;;6.70;2.67;;;14.20;99.90;;;;;;4967960;28;20824;-79
2021/12/31 10:05:52;;;;;;;6.80;2.10;;;14.10;99.90;;;;;;4974399;28;20836;-77
2021/12/31 10:08:21;;;;;;;3.77;2.30;;;14.20;99.90;;;;;;4974016;28;20930;-77
2021/12/31 10:11:03;;;;;;;3.90;2.70;;;14.20;99.90;;;;;;4972789;28;20508;-77
2021/12/31 10:13:30;;;;;;;8.00;2.60;;;14.30;99.90;;;;;;4987494;28;20183;-78
2021/12/31 10:15:57;;;;;;;4.80;2.10;;;14.40;99.90;;;;;;4974356;28;20425;-77
2021/12/31 10:18:30;;;;;;;3.63;1.87;;;14.50;99.90;;;;;;4973732;28;20437;-78
2021/12/31 10:20:56;;;;;;;4.00;1.97;;;14.50;99.90;;;;;;4975247;28;20440;-79
2021/12/31 10:23:21;;;;;;;4.83;2.67;;;14.60;99.90;;;;;;4975407;28;20426;-78
2021/12/31 10:25:47;;;;;;;3.53;2.20;;;14.60;99.90;;;;;;4976555;28;20220;-79
2021/12/31 10:28:16;;;;;;;3.27;2.03;;;14.70;99.90;;;;;;4977358;28;20189;-79
2021/12/31 10:30:45;;;;;;;6.00;2.40;;;14.70;99.90;;;;;;4976244;28;20421;-79
2021/12/31 10:33:11;;;;;;;3.47;1.90;;;14.80;99.90;;;;;;4976044;28;20434;-79
2021/12/31 10:35:45;;;;;;;4.07;2.30;;;14.80;99.90;;;;;;4976341;28;20429;-80
2021/12/31 10:38:12;;;;;;;4.57;2.37;;;14.90;99.90;;;;;;4991377;28;20473;-79
2021/12/31 10:40:40;;;;;;;4.37;2.40;;;15.00;99.90;;;;;;4978293;28;20501;-79
2021/12/31 10:43:21;;;;;;;3.00;2.10;;;15.10;99.90;;;;;;4977913;28;20445;-79
2021/12/31 10:46:09;;;;;;;3.13;1.97;;;15.20;99.90;;;;;;4978482;28;20935;-79
2021/12/31 10:48:39;;;;;;;3.00;2.13;;;15.50;99.90;;;;;;4977403;28;20426;-79
2021/12/31 10:51:06;;;;;;;3.73;2.10;;;15.60;99.90;;;;;;4977560;28;20414;-79
2021/12/31 10:53:35;;;;;;;4.20;2.73;;;15.70;99.90;;;;;;4977298;28;20433;-79
2021/12/31 10:56:07;;;;;;;3.80;1.97;;;15.80;99.90;;;;;;4977817;28;20504;-79
2021/12/31 10:58:33;;;;;;;3.53;2.10;;;15.80;99.90;;;;;;4977181;28;20429;-79
2021/12/31 11:01:01;;;;;;;5.50;2.10;;;15.90;99.90;;;;;;4977811;28;20441;-79
2021/12/31 11:03:27;;;;;;;3.73;2.20;;;15.90;99.90;;;;;;4977630;28;20425;-79
2021/12/31 11:05:56;;;;;;;3.87;2.27;;;15.90;99.90;;;;;;4977542;28;20924;-79
2021/12/31 11:08:23;;;;;;;2.97;1.83;;;15.90;99.90;;;;;;4977010;28;20420;-78
2021/12/31 11:10:51;;;;;;;3.20;1.93;;;16.00;99.90;;;;;;4977795;28;20428;-79
2021/12/31 11:13:21;;;;;;;3.43;2.53;;;15.90;99.90;;;;;;4977208;28;20442;-79
2021/12/31 11:15:52;;;;;;;3.13;1.80;;;15.80;99.90;;;;;;4977140;28;20508;-79
2021/12/31 11:18:23;;;;;;;3.20;2.13;;;15.70;99.90;;;;;;4977239;28;20418;-78
2021/12/31 11:20:50;;;;;;;4.63;2.33;;;15.50;99.90;;;;;;4977257;28;20936;-79
2021/12/31 11:23:17;;;;;;;4.40;2.40;;;15.40;99.90;;;;;;4976912;28;20461;-79
2021/12/31 11:25:58;;;;;;;3.20;2.03;;;15.40;99.90;;;;;;4976590;28;20500;-79
2021/12/31 11:28:29;;;;;;;3.73;1.87;;;15.30;99.90;;;;;;4977201;28;20421;-79
2021/12/31 11:30:56;;;;;;;4.37;2.50;;;15.30;99.90;;;;;;4979760;28;20445;-79
2021/12/31 11:33:27;;;;;;;3.50;2.00;;;15.30;99.90;;;;;;4980723;28;20417;-79
2021/12/31 11:36:02;;;;;;;3.50;2.03;;;15.40;99.90;;;;;;4980934;28;20465;-79
2021/12/31 11:38:28;;;;;;;4.00;2.10;;;15.40;99.90;;;;;;4965212;28;20429;-79
2021/12/31 11:41:07;;;;;;;3.20;2.00;;;15.30;99.90;;;;;;4964925;28;20444;-79
2021/12/31 11:43:35;;;;;;;2.90;1.90;;;15.30;99.90;;;;;;4981217;28;20186;-79
2021/12/31 11:46:15;;;;;;;3.50;1.83;;;15.30;99.90;;;;;;4980327;28;20489;-79
2021/12/31 11:48:44;;;;;;;3.87;2.00;;;15.40;99.90;;;;;;4964005;28;20488;-79
2021/12/31 11:51:28;;;;;;;3.97;1.97;;;15.40;99.90;;;;;;4964099;28;20417;-79
2021/12/31 11:54:00;;;;;;;4.90;2.47;;;15.50;99.90;;;;;;4980336;28;20432;-79
2021/12/31 11:56:39;;;;;;;6.30;2.30;;;15.50;99.90;;;;;;4964459;28;20976;-79
2021/12/31 11:59:08;;;;;;;4.83;2.87;;;15.50;99.90;;;;;;4964594;28;20425;-79
2021/12/31 12:01:37;;;;;;;3.30;2.00;;;15.60;99.90;;;;;;4965792;28;20496;-79
2021/12/31 12:04:25;;;;;;;5.30;1.97;;;15.60;99.90;;;;;;4964986;28;20432;-79
2021/12/31 12:07:03;;;;;;;3.93;2.40;;;15.60;99.90;;;;;;4966023;28;20484;-80
2021/12/31 12:09:40;;;;;;;3.70;1.90;;;15.50;99.90;;;;;;4965519;28;20429;-79
2021/12/31 12:12:29;;;;;;;2.87;1.50;;;15.50;99.90;;;;;;4963107;28;20532;-78
2021/12/31 12:14:57;;;;;;;3.47;1.60;;;15.50;99.90;;;;;;4981429;28;20484;-80
2021/12/31 12:17:29;;;;;;;4.73;1.33;;;15.50;99.90;;;;;;4979585;28;20429;-79
2021/12/31 12:20:01;;;;;;;3.20;1.60;;;15.60;99.90;;;;;;4961733;28;20440;-78
2021/12/31 12:22:35;;;;;;;2.83;1.43;;;15.60;99.90;;;;;;4962815;28;20848;-77
2021/12/31 12:25:19;;;;;;;2.70;1.40;;;15.50;99.90;;;;;;4978284;28;20928;-79
2021/12/31 12:27:48;;;;;;;3.33;1.50;;;15.60;99.90;;;;;;4978019;28;20915;-79
2021/12/31 12:30:15;;;;;;;2.90;1.40;;;15.70;99.90;;;;;;4980097;28;20430;-82
2021/12/31 12:35:18;;;;;;;3.37;1.50;;;15.80;99.90;;;;;;4981892;28;20420;-82
2021/12/31 12:37:58;;;;;;;2.87;1.50;;;15.90;99.90;;;;;;4979443;28;20867;-81
2021/12/31 12:40:43;;;;;;;2.80;1.57;;;15.80;99.90;;;;;;4978046;28;20794;-78
2021/12/31 12:43:27;;;;;;;3.00;1.50;;;15.80;99.90;;;;;;4959413;28;20457;-79
2021/12/31 12:46:05;;;;;;;2.70;1.60;;;15.70;99.90;;;;;;4976389;28;20476;-78
2021/12/31 12:48:46;;;;;;;2.70;1.40;;;15.60;99.90;;;;;;4975940;28;20434;-78
2021/12/31 12:51:14;;;;;;;6.20;1.47;;;15.70;99.90;;;;;;4974544;28;20430;-76
2021/12/31 12:53:49;;;;;;;2.60;1.40;;;15.90;99.90;;;;;;4974111;28;20426;-77
2021/12/31 12:56:24;;;;;;;4.53;1.63;;;16.90;99.90;;;;;;4976346;28;20528;-81
2021/12/31 12:58:50;;;;;;;2.40;1.30;;;18.40;99.90;;;;;;4976311;28;20435;-80